Aruba, Aruba

6:34 AM AST on August 29, 2014 (GMT -0400)
Oranjestad-Reina Beatrix International | Change Station
CLOSE
Current Station
Airport
Location: Aruba,
Elevation: 59 ft
Nearby Weather Stations

Elev 59 ft 12.50 °N, 70.02 °W | Updated 34 minutes ago

Partly Cloudy
Partly Cloudy
82 °F
Feels Like 90 °F
N
21
Wind Variable Wind from East
Gusts 33 mph

Today
High -- | Low -- °F
--% Chance of Precip.
Yesterday
High -- | Low -- °F
Precip. -- in
6:29 AM 6:52 PM
Waxing Crescent, 13% visible
Pressure 29.83 in
Visibility 6.2 miles
Clouds Few 1700 ft
Heat Index 90 °F
Dew Point 75 °F
Humidity 79%
Rainfall 0.00 in
Snow Depth Not available.
UV 0 out of 12
Pollen Not available.
Air Quality Not available.
Flu Activity Not available.
METAR TNCA 291000Z 10018G29KT 9999 FEW017 28/24 Q1010 A2984 NOSIG

More Conditions Fewer Conditions

Pressure 29.83 in
Visibility 6.2 miles
Clouds Few 1700 ft
Heat Index 90 °F
Dew Point 75 °F
Humidity 79%
Rainfall 0.00 in
Snow Depth Not available.
UV 0 out of 12
Pollen Not available.
Air Quality Not available.
Flu Activity Not available.
METAR TNCA 291000Z 10018G29KT 9999 FEW017 28/24 Q1010 A2984 NOSIG

More Conditions Fewer Conditions

10-Day Weather Forecast

Almanac

Astronomy

Aug. 29, 2014 Rise Set
Actual Time 6:29 AM AST 6:52 PM AST
Civil Twilight 6:07 AM AST 7:14 PM AST
Nautical Twilight 5:42 AM AST 7:39 PM AST
Astronomical Twilight 5:17 AM AST 8:04 PM AST
Moon 9:30 AM AST 9:36 PM AST
Length of Visible Light 13h 06m
Length of Day
12h 23m
Tomorrow will be 0m 39s shorter.
Waxing Crescent, 13% of the Moon is Illuminated
Today
Waxing Crescent
Sep 2
First Quarter
Sep 8
Full
Sep 15
Last Quarter
Sep 24
New

Yesterday's Extremes

Country Highs Country Lows

Community

WunderPhotos

Upload Photos

1,748,208 photos uploaded!

Nearby

Snow Depth

Not available.

Earthquake Activity

City Distance Mag. Time & Date
No recent earthquake activity has been reported nearby.
Minimum magnitude displayed is 2.5.

Coastal Water Temperatures

Place Temperature
No Stations Reporting

Nearby Weather Stations